createdAt,value
2022-12-18T00:09:40.027Z,11.83
2022-12-18T00:19:43.429Z,12.00
2022-12-18T00:29:48.003Z,11.00
2022-12-18T00:39:52.185Z,10.63
2022-12-18T00:49:57.824Z,10.93
2022-12-18T01:00:00.882Z,11.37
2022-12-18T01:10:06.853Z,10.33
2022-12-18T01:20:14.283Z,12.87
2022-12-18T01:30:19.119Z,13.07
2022-12-18T01:40:22.152Z,13.30
2022-12-18T01:50:34.907Z,10.73
2022-12-18T02:00:38.032Z,10.32
2022-12-18T02:10:50.700Z,10.83
2022-12-18T02:21:07.041Z,10.47
2022-12-18T02:31:16.456Z,10.23
2022-12-18T02:41:20.931Z,10.60
2022-12-18T02:51:31.686Z,10.53
2022-12-18T03:01:45.319Z,10.47
2022-12-18T03:12:14.411Z,10.80
2022-12-18T03:22:18.494Z,10.83
2022-12-18T03:32:31.850Z,12.13
2022-12-18T03:42:46.068Z,9.57
2022-12-18T03:52:57.143Z,11.87
2022-12-18T04:03:02.937Z,11.67
2022-12-18T04:13:13.803Z,11.10
2022-12-18T04:23:17.659Z,13.60
2022-12-18T04:33:22.163Z,11.93
2022-12-18T04:43:25.309Z,10.90
2022-12-18T04:53:29.841Z,12.90
2022-12-18T05:03:33.418Z,12.63
2022-12-18T05:13:40.145Z,11.80
2022-12-18T05:23:43.616Z,13.83
2022-12-18T05:33:48.112Z,13.17
2022-12-18T05:43:51.252Z,14.47
2022-12-18T05:53:55.627Z,14.57
2022-12-18T06:03:58.599Z,14.13
2022-12-18T06:14:04.403Z,14.10
2022-12-18T06:24:08.217Z,13.77
2022-12-18T06:34:12.547Z,13.53
2022-12-18T06:44:15.623Z,14.53
2022-12-18T06:54:20.016Z,13.33
2022-12-18T07:04:23.032Z,13.63
2022-12-18T07:14:27.692Z,14.10
2022-12-18T07:24:30.747Z,13.27
2022-12-18T07:34:35.170Z,14.47
2022-12-18T07:44:38.600Z,14.17
2022-12-18T07:54:43.552Z,14.20
2022-12-18T08:04:46.547Z,13.97
2022-12-18T08:14:50.833Z,15.00
2022-12-18T08:24:54.075Z,16.70
2022-12-18T08:34:58.484Z,13.57
2022-12-18T08:45:01.404Z,10.60
2022-12-18T08:55:06.931Z,12.50
2022-12-18T09:05:10.962Z,15.17
2022-12-18T09:37:52.628Z,14.40
2022-12-18T09:47:58.346Z,14.10
2022-12-18T09:58:08.809Z,16.33
2022-12-18T10:08:19.472Z,12.90
2022-12-18T10:28:32.672Z,13.27
2022-12-18T10:38:36.967Z,15.13
2022-12-18T10:48:49.513Z,12.50
2022-12-18T10:59:01.648Z,14.43
2022-12-18T11:09:13.177Z,14.27
2022-12-18T11:19:39.318Z,15.97
2022-12-18T11:29:46.551Z,13.13
2022-12-18T11:39:59.304Z,14.57
2022-12-18T11:50:13.362Z,13.57
2022-12-18T12:00:20.875Z,14.87
2022-12-18T12:10:38.379Z,12.73
2022-12-18T12:20:52.650Z,18.07
2022-12-18T12:31:09.670Z,12.53
2022-12-18T12:41:31.284Z,13.90
2022-12-18T12:51:38.077Z,14.27
2022-12-18T13:01:55.824Z,17.60
2022-12-18T13:12:22.358Z,13.30
2022-12-18T13:22:38.027Z,16.23
2022-12-18T13:32:41.046Z,13.87
2022-12-18T13:43:03.187Z,15.93
2022-12-18T13:53:07.500Z,18.17
2022-12-18T14:03:22.544Z,15.77
2022-12-18T14:13:30.087Z,10.93
2022-12-18T14:23:36.695Z,15.17
2022-12-18T14:33:40.677Z,19.80
2022-12-18T14:43:46.851Z,17.87
2022-12-18T14:53:54.834Z,18.70
2022-12-18T15:04:01.201Z,16.67
2022-12-18T15:14:33.909Z,14.40
2022-12-18T15:24:38.354Z,19.00
2022-12-18T15:34:41.446Z,19.33
2022-12-18T15:44:45.908Z,17.30
2022-12-18T15:55:06.673Z,19.17
2022-12-18T16:05:18.085Z,17.52
2022-12-18T16:15:24.444Z,16.53
2022-12-18T16:25:30.444Z,22.17
2022-12-18T16:35:33.442Z,19.33
2022-12-18T16:45:37.464Z,21.13
2022-12-18T16:55:40.417Z,17.30
2022-12-18T17:05:48.744Z,20.67
2022-12-18T17:15:54.556Z,25.10
2022-12-18T17:26:01.121Z,21.50
2022-12-18T17:36:04.438Z,17.80
2022-12-18T17:46:09.137Z,22.63
2022-12-18T17:56:15.605Z,21.03
2022-12-18T18:06:20.142Z,22.70
2022-12-18T18:16:23.156Z,25.87
2022-12-18T18:26:29.312Z,23.40
2022-12-18T18:36:32.895Z,22.57
2022-12-18T18:46:37.247Z,25.93
2022-12-18T18:57:11.779Z,25.77
2022-12-18T19:07:04.359Z,21.47
2022-12-18T19:17:07.440Z,22.43
2022-12-18T19:27:12.024Z,26.57
2022-12-18T19:37:15.092Z,24.37
2022-12-18T19:47:20.564Z,25.93
2022-12-18T19:57:23.804Z,24.97
2022-12-18T20:07:28.048Z,25.17
2022-12-18T20:17:30.867Z,25.63
2022-12-18T20:27:36.168Z,24.37
2022-12-18T20:37:39.322Z,22.37
2022-12-18T20:47:47.497Z,23.40
2022-12-18T20:57:52.830Z,24.63
2022-12-18T21:07:57.383Z,24.97
2022-12-18T21:18:00.383Z,24.07
2022-12-18T21:28:05.149Z,25.10
2022-12-18T21:38:09.167Z,21.90
2022-12-18T21:48:13.596Z,25.17
2022-12-18T21:58:16.653Z,26.37
2022-12-18T22:08:20.935Z,26.30
2022-12-18T22:18:24.052Z,22.43
2022-12-18T22:28:45.843Z,25.87
2022-12-18T22:38:48.947Z,25.97
2022-12-18T22:48:53.673Z,22.63
2022-12-18T22:58:57.155Z,25.77
2022-12-18T23:09:02.695Z,25.27
2022-12-18T23:19:05.740Z,24.63
2022-12-18T23:29:10.585Z,22.80
2022-12-18T23:39:19.255Z,25.67
2022-12-18T23:49:34.187Z,27.27
2022-12-18T23:59:37.197Z,27.50
